Time;durP1;ratioP1;P1;durP2;ratioP2;P2;SDS_P1;SDS_P2;PMS_P1;PMS_P2;Temp;Humidity;BMP_temperature;BMP_pressure;BME280_temperature;BME280_humidity;BME280_pressure;Samples;Min_cycle;Max_cycle;Signal;HPM_P1;HPM_P2
2022/06/03 00:02:39;;;;;;;2.00;1.60;;;15.80;94.70;;;;;;5073938;28;20180;-70
2022/06/03 00:05:27;;;;;;;3.38;1.52;;;15.80;95.20;;;;;;5073722;28;20173;-67
2022/06/03 00:08:14;;;;;;;2.85;1.75;;;15.70;95.30;;;;;;5057360;28;20252;-70
2022/06/03 00:10:54;;;;;;;2.13;1.80;;;15.70;95.30;;;;;;5056858;28;20224;-72
2022/06/03 00:13:42;;;;;;;2.08;1.83;;;15.70;95.90;;;;;;5057147;28;20173;-70
2022/06/03 00:16:30;;;;;;;2.35;1.95;;;15.70;96.40;;;;;;5057418;28;20214;-70
2022/06/03 00:19:03;;;;;;;2.67;2.00;;;15.60;96.50;;;;;;5038623;28;20189;-70
2022/06/03 00:21:39;;;;;;;2.53;2.03;;;15.60;96.00;;;;;;5044473;28;20204;-71
2022/06/03 00:24:41;;;;;;;2.90;2.10;;;15.60;96.90;;;;;;5056988;28;20192;-70
2022/06/03 00:27:15;;;;;;;2.30;1.88;;;15.50;97.30;;;;;;5056884;28;20201;-70
2022/06/03 00:30:14;;;;;;;2.22;2.03;;;15.50;97.10;;;;;;5057036;28;20264;-70
2022/06/03 00:33:15;;;;;;;1.98;1.75;;;15.50;97.70;;;;;;5055922;28;20262;-68
2022/06/03 00:35:53;;;;;;;2.67;1.77;;;15.50;97.80;;;;;;5073151;28;20193;-70
2022/06/03 00:38:37;;;;;;;2.72;1.90;;;15.50;97.70;;;;;;5073439;28;20200;-70
2022/06/03 00:41:06;;;;;;;2.08;1.88;;;15.50;97.40;;;;;;5056565;28;20193;-70
2022/06/03 00:43:50;;;;;;;1.90;1.67;;;15.40;97.60;;;;;;5056495;28;20173;-70
2022/06/03 00:46:46;;;;;;;1.58;1.48;;;15.40;98.50;;;;;;5057011;28;20192;-70
2022/06/03 00:49:33;;;;;;;2.20;1.45;;;15.40;98.70;;;;;;5056514;28;20228;-71
2022/06/03 00:52:26;;;;;;;2.00;1.80;;;15.40;98.40;;;;;;5056615;28;20166;-70
2022/06/03 00:55:25;;;;;;;2.08;1.48;;;15.30;99.00;;;;;;5056577;28;20200;-70
2022/06/03 00:58:04;;;;;;;1.77;1.60;;;15.30;99.20;;;;;;5056403;28;20260;-70
2022/06/03 01:00:42;;;;;;;1.60;1.40;;;15.30;98.60;;;;;;5056190;28;20193;-71
2022/06/03 01:03:56;;;;;;;2.13;1.60;;;15.30;99.10;;;;;;5072762;28;20189;-70
2022/06/03 01:06:33;;;;;;;2.65;1.58;;;15.20;99.70;;;;;;5073043;28;20288;-70
2022/06/03 01:09:02;;;;;;;1.75;1.40;;;15.20;99.70;;;;;;5072788;28;20203;-71
2022/06/03 01:11:49;;;;;;;2.60;1.80;;;15.20;99.20;;;;;;5072835;28;20177;-71
2022/06/03 01:14:44;;;;;;;1.67;1.40;;;15.10;99.70;;;;;;5055822;28;20268;-69
2022/06/03 01:17:32;;;;;;;2.20;1.60;;;15.10;99.90;;;;;;5025520;28;20174;-70
2022/06/03 01:20:13;;;;;;;1.70;1.52;;;15.00;99.90;;;;;;5054772;28;20209;-69
2022/06/03 01:23:01;;;;;;;2.00;1.65;;;15.00;99.90;;;;;;5075970;28;20169;-70
2022/06/03 01:25:50;;;;;;;1.98;1.60;;;14.90;99.90;;;;;;5075645;28;20207;-70
2022/06/03 01:28:43;;;;;;;2.42;1.60;;;14.90;99.90;;;;;;5069116;28;20279;-70
2022/06/03 01:31:29;;;;;;;1.88;1.58;;;14.90;99.90;;;;;;5055330;28;20212;-70
2022/06/03 01:34:26;;;;;;;2.58;1.75;;;14.80;99.90;;;;;;5055767;28;20178;-70
2022/06/03 01:37:19;;;;;;;1.75;1.60;;;14.80;99.90;;;;;;5055733;28;20193;-70
2022/06/03 01:39:45;;;;;;;2.47;1.63;;;14.80;99.90;;;;;;5050739;28;20186;-70
2022/06/03 01:42:48;;;;;;;2.53;1.65;;;14.80;99.90;;;;;;5035665;28;20267;-70
2022/06/03 01:45:25;;;;;;;1.75;1.60;;;14.70;99.90;;;;;;5035493;28;20182;-70
2022/06/03 01:48:06;;;;;;;2.03;1.70;;;14.70;99.90;;;;;;5051434;28;20200;-70
2022/06/03 01:51:13;;;;;;;2.00;1.42;;;14.70;99.90;;;;;;5050975;28;20201;-70
2022/06/03 01:54:10;;;;;;;2.20;1.45;;;14.70;99.90;;;;;;5052434;28;20197;-70
2022/06/03 01:56:42;;;;;;;1.80;1.50;;;14.70;99.90;;;;;;5035696;28;20265;-69
2022/06/03 01:59:18;;;;;;;4.78;1.70;;;14.60;99.90;;;;;;5035320;28;20204;-69
2022/06/03 02:02:22;;;;;;;1.55;1.35;;;14.60;99.90;;;;;;5052453;28;20181;-69
2022/06/03 02:04:47;;;;;;;1.70;1.60;;;14.60;99.90;;;;;;5062727;28;20201;-71
2022/06/03 02:07:43;;;;;;;2.10;1.70;;;14.60;99.90;;;;;;5055202;28;20169;-69
2022/06/03 02:10:35;;;;;;;1.92;1.70;;;14.50;99.90;;;;;;5055242;28;20205;-71
2022/06/03 02:13:22;;;;;;;1.88;1.67;;;14.50;99.90;;;;;;5051813;28;20197;-70
2022/06/03 02:16:04;;;;;;;3.30;1.77;;;14.50;99.90;;;;;;5035057;28;20194;-70
2022/06/03 02:18:46;;;;;;;2.20;1.55;;;14.40;99.90;;;;;;5035139;28;20174;-70
2022/06/03 02:21:44;;;;;;;2.55;1.45;;;14.40;99.90;;;;;;5034841;28;20209;-70
2022/06/03 02:24:26;;;;;;;1.52;1.30;;;14.30;99.90;;;;;;5043992;28;20170;-70
2022/06/03 02:27:04;;;;;;;1.90;1.50;;;14.30;99.90;;;;;;5070567;28;20197;-70
2022/06/03 02:32:43;;;;;;;2.50;1.60;;;14.20;99.90;;;;;;5055509;28;20228;-70
2022/06/03 02:35:30;;;;;;;2.10;1.60;;;14.10;99.90;;;;;;5054665;28;20176;-70
2022/06/03 02:38:11;;;;;;;2.00;1.80;;;14.10;99.90;;;;;;5054803;28;20221;-71
2022/06/03 02:40:55;;;;;;;2.10;1.80;;;14.10;99.90;;;;;;5054788;28;20180;-71
2022/06/03 02:44:01;;;;;;;1.70;1.60;;;14.10;99.90;;;;;;5054969;28;20169;-69
2022/06/03 02:46:51;;;;;;;1.80;1.60;;;14.00;99.90;;;;;;5054262;28;20188;-70
2022/06/03 02:49:55;;;;;;;1.90;1.60;;;14.00;99.90;;;;;;5054495;28;20224;-70
2022/06/03 02:52:59;;;;;;;1.70;1.60;;;13.90;99.90;;;;;;5054729;28;20258;-70
2022/06/03 02:56:03;;;;;;;1.52;1.30;;;13.90;99.90;;;;;;5055560;28;20201;-70
2022/06/03 02:58:28;;;;;;;1.92;1.67;;;13.80;99.90;;;;;;5025324;28;20268;-71
2022/06/03 03:00:57;;;;;;;2.22;1.38;;;13.80;99.90;;;;;;5044983;28;20244;-70
2022/06/03 03:03:50;;;;;;;2.30;1.63;;;13.70;99.90;;;;;;5038749;28;20178;-70
2022/06/03 03:06:24;;;;;;;1.75;1.40;;;13.70;99.90;;;;;;5038776;28;20202;-70
2022/06/03 03:09:29;;;;;;;1.50;1.38;;;13.70;99.90;;;;;;5038623;28;20178;-69
2022/06/03 03:12:35;;;;;;;2.17;1.55;;;13.70;99.90;;;;;;5024325;28;20342;-69
2022/06/03 03:15:26;;;;;;;1.95;1.40;;;13.70;99.90;;;;;;5058466;28;20177;-71
2022/06/03 03:18:23;;;;;;;2.53;1.58;;;13.70;99.90;;;;;;5044747;28;20198;-69
2022/06/03 03:21:13;;;;;;;2.03;1.70;;;13.60;99.90;;;;;;5048578;28;20199;-69
2022/06/03 03:23:47;;;;;;;2.75;2.10;;;13.70;99.90;;;;;;5058079;28;20270;-70
2022/06/03 03:26:15;;;;;;;3.72;1.88;;;13.60;99.90;;;;;;5077720;28;20176;-69
2022/06/03 03:28:55;;;;;;;2.10;1.90;;;13.60;99.90;;;;;;5074551;28;20200;-70
2022/06/03 03:31:50;;;;;;;2.55;2.03;;;13.60;99.90;;;;;;5066068;28;20268;-70
2022/06/03 03:34:15;;;;;;;2.10;1.70;;;13.60;99.90;;;;;;5038404;28;20198;-70
2022/06/03 03:37:17;;;;;;;4.93;2.80;;;13.60;99.90;;;;;;5038269;28;20166;-70
2022/06/03 03:40:57;;;;;;;3.28;1.95;;;13.60;99.90;;;;;;5037529;28;20197;-69
2022/06/03 03:43:51;;;;;;;2.10;1.90;;;13.60;99.90;;;;;;4931822;28;20263;-70
2022/06/03 03:46:42;;;;;;;2.65;1.80;;;13.50;99.90;;;;;;5018510;28;20193;-70
2022/06/03 03:49:26;;;;;;;2.10;1.67;;;13.50;99.90;;;;;;5057620;28;20319;-70
2022/06/03 03:52:19;;;;;;;1.92;1.70;;;13.50;99.90;;;;;;5057987;28;20169;-70
2022/06/03 03:54:59;;;;;;;2.05;1.52;;;13.50;99.90;;;;;;5057448;28;20193;-71
2022/06/03 03:57:46;;;;;;;1.88;1.67;;;13.40;99.90;;;;;;5057639;28;20257;-70
2022/06/03 04:00:46;;;;;;;1.52;1.40;;;13.40;99.90;;;;;;5057494;28;20236;-70
2022/06/03 04:03:30;;;;;;;1.95;1.58;;;13.40;99.90;;;;;;5074366;28;20197;-70
2022/06/03 04:06:07;;;;;;;2.25;2.05;;;13.40;99.90;;;;;;5057482;28;20296;-70
2022/06/03 04:09:10;;;;;;;2.65;2.15;;;13.40;99.90;;;;;;5057336;28;20264;-70
2022/06/03 04:11:44;;;;;;;2.72;2.28;;;13.50;99.90;;;;;;5073504;28;20181;-70
2022/06/03 04:15:02;;;;;;;3.88;2.35;;;13.50;99.90;;;;;;5056944;28;20433;-70
2022/06/03 04:18:05;;;;;;;2.88;2.10;;;13.50;99.90;;;;;;5013619;28;20192;-71
2022/06/03 04:21:04;;;;;;;2.53;1.98;;;13.60;99.90;;;;;;5073607;28;20212;-70
2022/06/03 04:24:06;;;;;;;2.63;2.00;;;13.60;99.90;;;;;;5057296;28;20173;-71
2022/06/03 04:26:50;;;;;;;1.90;1.70;;;13.60;99.90;;;;;;5050327;28;20213;-70
2022/06/03 04:29:48;;;;;;;3.20;1.70;;;13.60;99.90;;;;;;5040042;28;20205;-70
2022/06/03 04:32:46;;;;;;;9.68;7.07;;;13.70;99.90;;;;;;5056570;28;20166;-70
2022/06/03 04:35:26;;;;;;;4.28;3.10;;;13.70;99.90;;;;;;5057300;28;20193;-70
2022/06/03 04:38:14;;;;;;;3.22;2.85;;;13.80;99.90;;;;;;5053229;28;20188;-71
2022/06/03 04:41:03;;;;;;;5.57;2.28;;;13.80;99.90;;;;;;5053540;28;20201;-70
2022/06/03 04:43:50;;;;;;;2.90;2.33;;;13.90;99.90;;;;;;5060244;28;20243;-70
2022/06/03 04:46:22;;;;;;;3.25;2.50;;;13.90;99.90;;;;;;5056286;28;20205;-70
2022/06/03 04:49:01;;;;;;;2.63;2.17;;;13.90;99.90;;;;;;5056606;28;20177;-70
2022/06/03 04:52:04;;;;;;;3.08;2.20;;;14.00;99.90;;;;;;5056355;28;20207;-70
2022/06/03 04:54:50;;;;;;;2.28;1.90;;;14.10;99.90;;;;;;5056367;28;20166;-70
2022/06/03 04:57:44;;;;;;;2.90;1.73;;;14.10;99.90;;;;;;5056458;28;20176;-70
2022/06/03 05:00:36;;;;;;;2.58;1.90;;;14.20;99.90;;;;;;5056088;28;20179;-70
2022/06/03 05:03:56;;;;;;;1.80;1.33;;;14.30;99.90;;;;;;5056386;28;20252;-70
2022/06/03 05:07:09;;;;;;;1.55;1.08;;;14.30;99.90;;;;;;4999038;28;20230;-70
2022/06/03 05:09:52;;;;;;;2.47;1.40;;;14.40;99.90;;;;;;5068398;28;20256;-70
2022/06/03 05:12:23;;;;;;;2.10;1.45;;;14.50;99.90;;;;;;5055927;28;20255;-70
2022/06/03 05:15:18;;;;;;;3.35;1.35;;;14.60;99.90;;;;;;5072606;28;20174;-71
2022/06/03 05:18:12;;;;;;;1.55;1.40;;;14.60;99.90;;;;;;5052619;28;20207;-71
2022/06/03 05:21:03;;;;;;;3.35;1.20;;;14.70;99.90;;;;;;5035750;28;20186;-71
2022/06/03 05:24:02;;;;;;;1.85;1.30;;;14.80;99.90;;;;;;5036287;28;20166;-71
2022/06/03 05:26:46;;;;;;;1.42;1.23;;;14.90;99.90;;;;;;5047130;28;20212;-71
2022/06/03 05:29:36;;;;;;;2.05;1.50;;;15.10;99.90;;;;;;5055421;28;20201;-71
2022/06/03 05:32:16;;;;;;;1.35;1.15;;;15.10;99.90;;;;;;5055366;28;20205;-71
2022/06/03 05:35:11;;;;;;;1.08;0.90;;;15.20;99.90;;;;;;5072760;28;20169;-71
2022/06/03 05:37:55;;;;;;;1.35;1.00;;;15.30;99.90;;;;;;5051385;28;20251;-71
2022/06/03 05:40:29;;;;;;;1.52;1.00;;;15.40;99.90;;;;;;5071588;28;20264;-71
2022/06/03 05:43:30;;;;;;;2.13;1.02;;;15.50;99.90;;;;;;5055515;28;20212;-71
2022/06/03 05:46:13;;;;;;;1.75;1.13;;;15.60;99.90;;;;;;5051699;28;20192;-70
2022/06/03 05:49:03;;;;;;;1.33;1.10;;;15.70;99.90;;;;;;5071831;28;20201;-70
2022/06/03 05:51:59;;;;;;;1.83;1.20;;;15.80;99.90;;;;;;5054687;28;20177;-71
2022/06/03 05:54:32;;;;;;;1.20;0.95;;;15.90;99.90;;;;;;5071982;28;20184;-71
2022/06/03 05:57:09;;;;;;;1.65;1.05;;;16.00;99.90;;;;;;5055055;28;20239;-71
2022/06/03 06:00:09;;;;;;;1.25;1.10;;;16.10;99.90;;;;;;5055218;28;20206;-71
2022/06/03 06:02:39;;;;;;;1.48;0.90;;;16.20;99.90;;;;;;5055098;28;20201;-72
2022/06/03 06:05:24;;;;;;;1.75;1.00;;;16.30;99.90;;;;;;5055028;28;20169;-71
2022/06/03 06:07:53;;;;;;;1.25;0.90;;;16.30;99.90;;;;;;5054953;28;20201;-71
2022/06/03 06:10:56;;;;;;;2.22;1.00;;;16.40;99.90;;;;;;5054610;28;20203;-71
2022/06/03 06:13:44;;;;;;;1.00;0.93;;;16.50;99.90;;;;;;5048628;28;20207;-71
2022/06/03 06:16:29;;;;;;;1.30;0.85;;;16.60;99.90;;;;;;5071850;28;20173;-71
2022/06/03 06:18:54;;;;;;;1.30;1.00;;;16.70;99.90;;;;;;5070912;28;20189;-70
2022/06/03 06:21:29;;;;;;;1.23;0.90;;;16.70;99.90;;;;;;5055958;28;20183;-71
2022/06/03 06:24:20;;;;;;;2.80;1.00;;;16.80;99.90;;;;;;5054607;28;20200;-70
2022/06/03 06:27:05;;;;;;;1.05;0.95;;;16.90;99.90;;;;;;5054655;28;20412;-71
2022/06/03 06:29:46;;;;;;;1.17;0.90;;;16.90;99.90;;;;;;5054531;28;20209;-71
2022/06/03 06:32:27;;;;;;;1.00;0.90;;;17.00;99.90;;;;;;5054607;28;20169;-71
2022/06/03 06:35:14;;;;;;;1.60;1.10;;;17.10;99.90;;;;;;5054994;28;20260;-71
2022/06/03 06:38:06;;;;;;;1.45;1.10;;;17.10;99.90;;;;;;5051267;28;20184;-71
2022/06/03 06:40:53;;;;;;;1.52;0.90;;;17.20;99.90;;;;;;5062816;28;20181;-70
2022/06/03 06:43:21;;;;;;;1.00;0.90;;;17.30;99.90;;;;;;5055640;28;20200;-72
2022/06/03 06:46:12;;;;;;;1.00;0.85;;;17.30;99.90;;;;;;5054726;28;20177;-70
2022/06/03 06:49:14;;;;;;;1.17;0.82;;;17.50;99.90;;;;;;5054539;28;20204;-70
2022/06/03 06:52:27;;;;;;;1.55;1.02;;;17.50;99.90;;;;;;5054576;28;20245;-70
2022/06/03 06:55:07;;;;;;;1.05;0.95;;;17.60;99.90;;;;;;4978035;28;20211;-71
2022/06/03 06:57:40;;;;;;;1.58;0.80;;;17.70;99.90;;;;;;5045282;28;20181;-71
2022/06/03 07:00:17;;;;;;;0.98;0.90;;;17.70;99.90;;;;;;5054390;28;20264;-71
2022/06/03 07:02:51;;;;;;;1.08;0.98;;;17.80;99.90;;;;;;5054072;28;20230;-70
2022/06/03 07:05:31;;;;;;;0.88;0.73;;;17.80;99.90;;;;;;5054623;28;20197;-71
2022/06/03 07:08:11;;;;;;;0.90;0.85;;;17.90;99.90;;;;;;5070871;28;20183;-70
2022/06/03 07:10:50;;;;;;;1.50;1.00;;;17.90;99.90;;;;;;5054162;28;20208;-71
2022/06/03 07:13:34;;;;;;;0.95;0.80;;;17.90;99.90;;;;;;5054511;28;20256;-70
2022/06/03 07:19:47;;;;;;;1.02;0.93;;;17.90;99.90;;;;;;5071112;28;20188;-71
2022/06/03 07:19:50;;;;;;;1.10;0.88;;;18.00;99.90;;;;;;5035101;28;20255;-71
2022/06/03 07:22:31;;;;;;;1.00;0.90;;;18.10;99.90;;;;;;5034470;28;20174;-71
2022/06/03 07:25:02;;;;;;;0.98;0.80;;;18.10;99.90;;;;;;5052925;28;20203;-70
2022/06/03 07:27:39;;;;;;;0.70;0.70;;;18.20;99.90;;;;;;5070879;28;20177;-71
2022/06/03 07:30:10;;;;;;;1.00;0.88;;;18.20;99.90;;;;;;5054235;28;20213;-72
2022/06/03 07:33:07;;;;;;;0.77;0.77;;;18.30;99.90;;;;;;5054235;28;20212;-71
2022/06/03 07:35:42;;;;;;;1.00;0.90;;;18.30;99.90;;;;;;5050705;28;20517;-71
2022/06/03 07:38:40;;;;;;;1.00;0.82;;;18.40;99.90;;;;;;5053991;28;20169;-71
2022/06/03 07:41:18;;;;;;;0.88;0.80;;;18.50;99.90;;;;;;5054527;28;20323;-71
2022/06/03 07:44:02;;;;;;;0.95;0.82;;;18.60;99.90;;;;;;5057824;28;20173;-71
2022/06/03 07:46:36;;;;;;;1.10;0.90;;;18.60;99.90;;;;;;5057684;28;20209;-80
2022/06/03 07:49:08;;;;;;;0.85;0.80;;;18.70;99.90;;;;;;5057720;28;20175;-82
2022/06/03 07:51:44;;;;;;;0.95;0.77;;;18.80;99.90;;;;;;5058159;28;20221;-81
2022/06/03 07:54:20;;;;;;;1.40;1.10;;;18.90;99.90;;;;;;5057391;28;20175;-80
2022/06/03 07:57:01;;;;;;;1.45;0.90;;;19.00;99.90;;;;;;5074654;28;20177;-83
2022/06/03 07:59:35;;;;;;;1.60;0.90;;;19.10;99.90;;;;;;5057899;28;20166;-83
2022/06/03 08:02:14;;;;;;;1.27;0.90;;;19.20;99.90;;;;;;5069487;28;20223;-85
2022/06/03 08:04:40;;;;;;;1.30;0.80;;;19.30;99.90;;;;;;5060199;28;20213;-83
2022/06/03 08:13:06;;;;;;;0.90;0.90;;;19.60;99.90;;;;;;5058570;28;20175;-85
2022/06/03 08:15:37;;;;;;;1.00;0.90;;;19.60;99.90;;;;;;5057100;28;20186;-81
2022/06/03 08:18:10;;;;;;;2.42;0.90;;;19.70;99.90;;;;;;5057231;28;20177;-81
2022/06/03 08:20:50;;;;;;;1.42;0.90;;;19.80;99.90;;;;;;5058057;28;20350;-79
2022/06/03 08:23:18;;;;;;;1.05;0.80;;;19.90;99.90;;;;;;5066137;28;20186;-81
2022/06/03 08:25:46;;;;;;;1.70;0.90;;;20.00;99.90;;;;;;5073093;28;20176;-82
2022/06/03 08:28:20;;;;;;;1.33;0.90;;;20.10;99.90;;;;;;5074379;28;20179;-81
2022/06/03 08:30:49;;;;;;;0.98;0.80;;;20.10;99.90;;;;;;5056578;28;20237;-79
2022/06/03 08:33:19;;;;;;;0.80;0.75;;;20.20;99.90;;;;;;5057138;28;20224;-82
2022/06/03 08:35:47;;;;;;;0.90;0.70;;;20.30;99.90;;;;;;5056914;28;20207;-82
2022/06/03 08:38:20;;;;;;;1.20;1.00;;;20.40;99.90;;;;;;5057063;28;20181;-79
2022/06/03 08:40:58;;;;;;;1.27;0.90;;;20.50;99.90;;;;;;5056630;28;20246;-84
2022/06/03 08:44:10;;;;;;;2.85;1.20;;;20.60;99.90;;;;;;5045978;28;20411;-83
2022/06/03 08:46:48;;;;;;;1.00;0.90;;;20.70;99.90;;;;;;5032981;28;20216;-81
2022/06/03 08:49:19;;;;;;;0.80;0.77;;;20.80;99.90;;;;;;5056938;28;20166;-82
2022/06/03 08:51:53;;;;;;;0.98;0.88;;;21.00;99.90;;;;;;5056334;28;20224;-84
2022/06/03 08:54:38;;;;;;;0.95;0.85;;;21.10;99.90;;;;;;5055204;28;20161;-80
2022/06/03 08:57:12;;;;;;;0.80;0.80;;;21.20;99.90;;;;;;5056176;28;20283;-81
2022/06/03 08:59:52;;;;;;;0.70;0.70;;;21.30;99.90;;;;;;5073400;28;20203;-82
2022/06/03 09:02:31;;;;;;;1.10;0.85;;;21.40;99.90;;;;;;5073067;28;20264;-80
2022/06/03 09:05:09;;;;;;;1.00;0.90;;;21.50;99.90;;;;;;5040799;28;20185;-82
2022/06/03 09:07:49;;;;;;;0.95;0.88;;;21.60;99.90;;;;;;5056189;28;20205;-81
2022/06/03 09:10:40;;;;;;;0.98;0.80;;;21.70;99.90;;;;;;5055936;28;20235;-81
2022/06/03 09:13:33;;;;;;;1.23;1.00;;;21.80;99.90;;;;;;5056232;28;20220;-80
2022/06/03 09:16:00;;;;;;;1.25;0.80;;;21.90;99.90;;;;;;5036171;28;20234;-80
2022/06/03 09:18:38;;;;;;;1.40;0.85;;;22.00;99.90;;;;;;5036144;28;20201;-80
2022/06/03 09:21:09;;;;;;;1.52;0.90;;;22.10;99.90;;;;;;5040079;28;20189;-86
2022/06/03 09:23:45;;;;;;;1.80;0.93;;;22.20;99.90;;;;;;5055985;28;20232;-83
2022/06/03 09:26:30;;;;;;;0.85;0.75;;;22.30;99.90;;;;;;5056306;28;20180;-81
2022/06/03 09:29:01;;;;;;;1.55;1.00;;;22.40;99.90;;;;;;5055407;28;20292;-81
2022/06/03 09:31:30;;;;;;;0.80;0.80;;;22.50;99.90;;;;;;5055780;28;20221;-79
2022/06/03 09:33:57;;;;;;;3.35;0.88;;;22.60;99.90;;;;;;5055818;28;20200;-86
2022/06/03 09:36:26;;;;;;;1.10;0.90;;;22.60;99.90;;;;;;5052729;28;20264;-80
2022/06/03 09:38:58;;;;;;;1.00;0.90;;;22.70;99.90;;;;;;5052955;28;20200;-80
2022/06/03 09:41:27;;;;;;;0.80;0.80;;;22.90;99.90;;;;;;5052619;28;20236;-81
2022/06/03 09:43:54;;;;;;;1.02;0.80;;;23.00;99.90;;;;;;5036212;28;20262;-81
2022/06/03 09:46:24;;;;;;;1.35;0.80;;;23.10;99.90;;;;;;5024630;28;20166;-81
2022/06/03 09:48:51;;;;;;;3.15;0.90;;;23.20;99.90;;;;;;5055100;28;20201;-80
2022/06/03 09:51:55;;;;;;;0.93;0.80;;;23.40;99.90;;;;;;5071819;28;20219;-80
2022/06/03 09:54:22;;;;;;;0.88;0.80;;;23.50;99.90;;;;;;5066406;28;20227;-80
2022/06/03 09:56:51;;;;;;;1.05;0.95;;;23.70;99.90;;;;;;5057818;28;20258;-79
2022/06/03 09:59:19;;;;;;;1.17;1.05;;;23.80;99.90;;;;;;5055539;28;20205;-81
2022/06/03 10:01:46;;;;;;;1.17;0.95;;;23.90;99.90;;;;;;5055687;28;20199;-80
2022/06/03 10:04:12;;;;;;;1.35;0.80;;;24.00;99.90;;;;;;5055644;28;20193;-81
2022/06/03 10:06:50;;;;;;;1.23;0.80;;;24.10;99.90;;;;;;5055191;28;20184;-81
2022/06/03 10:18:02;;;;;;;0.70;0.70;;;24.70;99.90;;;;;;5035441;28;20201;-82
2022/06/03 10:20:28;;;;;;;1.00;0.90;;;24.80;99.90;;;;;;5051973;28;20228;-82
2022/06/03 10:22:55;;;;;;;1.85;0.70;;;24.90;99.90;;;;;;5051791;28;20181;-83
2022/06/03 10:25:21;;;;;;;0.90;0.80;;;25.10;99.90;;;;;;5054505;28;20208;-81
2022/06/03 10:27:51;;;;;;;1.25;0.82;;;25.20;99.90;;;;;;5071714;28;20181;-81
2022/06/03 10:30:28;;;;;;;0.90;0.80;;;25.40;99.50;;;;;;5071184;28;20397;-81
2022/06/03 10:32:54;;;;;;;1.48;1.00;;;25.50;98.20;;;;;;5054307;28;20210;-79
2022/06/03 10:35:26;;;;;;;1.33;0.90;;;25.70;99.60;;;;;;5054969;28;20197;-81
2022/06/03 10:38:03;;;;;;;1.92;0.90;;;25.80;99.30;;;;;;5055030;28;20240;-82
2022/06/03 10:40:32;;;;;;;1.70;0.85;;;25.90;97.50;;;;;;5054612;28;20205;-80
2022/06/03 10:43:00;;;;;;;1.45;0.90;;;26.00;98.60;;;;;;5054928;28;20177;-82
2022/06/03 10:45:35;;;;;;;1.10;0.85;;;26.10;98.10;;;;;;5054720;28;20220;-79
2022/06/03 10:48:25;;;;;;;2.28;0.88;;;26.10;96.70;;;;;;5054629;28;20191;-78
2022/06/03 10:50:51;;;;;;;1.02;0.85;;;26.20;96.00;;;;;;5042591;28;20220;-80
2022/06/03 11:02:01;;;;;;;1.08;0.88;;;26.70;95.90;;;;;;5055589;28;20315;-82
2022/06/03 11:04:27;;;;;;;0.90;0.80;;;26.70;95.50;;;;;;5070712;28;20174;-84
2022/06/03 11:06:54;;;;;;;1.00;0.80;;;26.80;95.50;;;;;;5070730;28;20192;-82
2022/06/03 11:09:22;;;;;;;1.60;1.00;;;26.80;95.40;;;;;;5054187;28;20225;-82
2022/06/03 11:12:05;;;;;;;4.03;0.77;;;26.80;94.70;;;;;;5054158;28;20169;-82
2022/06/03 11:14:38;;;;;;;0.88;0.77;;;26.90;93.30;;;;;;5054418;28;20201;-81
2022/06/03 11:17:04;;;;;;;0.85;0.85;;;27.00;94.00;;;;;;5056053;28;20177;-81
2022/06/03 11:19:46;;;;;;;1.00;0.90;;;27.10;95.20;;;;;;5049495;28;20190;-81
2022/06/03 11:22:17;;;;;;;1.10;0.85;;;27.30;93.50;;;;;;5055212;28;20178;-86
2022/06/03 11:24:54;;;;;;;0.98;0.82;;;27.50;95.30;;;;;;5057320;28;20173;-86
2022/06/03 11:27:30;;;;;;;0.95;0.88;;;27.70;94.00;;;;;;5057528;28;20236;-81
2022/06/03 11:30:05;;;;;;;1.08;0.80;;;27.90;93.80;;;;;;5058169;28;20203;-82
2022/06/03 11:32:35;;;;;;;0.80;0.80;;;28.10;93.20;;;;;;5058239;28;20236;-83
2022/06/03 11:35:06;;;;;;;1.33;0.80;;;28.30;93.30;;;;;;5054934;28;20185;-82
2022/06/03 11:37:39;;;;;;;2.67;1.10;;;28.40;92.80;;;;;;5058475;28;20203;-85
2022/06/03 11:40:22;;;;;;;1.63;1.00;;;28.50;91.90;;;;;;5057949;28;20180;-80
2022/06/03 11:42:55;;;;;;;1.50;1.23;;;28.60;91.30;;;;;;5057886;28;20161;-81
2022/06/03 11:45:37;;;;;;;1.70;1.33;;;28.70;91.40;;;;;;5057705;28;20177;-86
2022/06/03 11:48:34;;;;;;;1.38;1.05;;;28.80;90.90;;;;;;5054618;28;20177;-85
2022/06/03 11:51:03;;;;;;;1.23;1.00;;;28.90;90.10;;;;;;5056624;28;20212;-82
2022/06/03 11:53:31;;;;;;;0.95;0.90;;;29.10;92.10;;;;;;5057729;28;20181;-83
2022/06/03 11:56:02;;;;;;;1.00;0.90;;;29.20;91.50;;;;;;5057719;28;20177;-83
2022/06/03 11:58:37;;;;;;;1.27;1.00;;;29.40;90.30;;;;;;5057926;28;20173;-88
2022/06/03 12:01:12;;;;;;;1.42;1.20;;;29.40;87.20;;;;;;5050581;28;20212;-86
2022/06/03 12:03:54;;;;;;;2.75;1.05;;;29.50;86.60;;;;;;5074085;28;20184;-83
2022/06/03 12:06:26;;;;;;;1.30;1.00;;;29.60;84.80;;;;;;5057471;28;20177;-80
2022/06/03 12:09:07;;;;;;;1.10;1.00;;;29.70;77.40;;;;;;5057363;28;20173;-87
2022/06/03 12:14:44;;;;;;;2.72;1.05;;;29.80;82.60;;;;;;5057652;28;20165;-79
2022/06/03 12:17:12;;;;;;;1.45;0.90;;;29.80;85.20;;;;;;5073947;28;20193;-88
2022/06/03 12:19:40;;;;;;;0.88;0.80;;;29.90;85.60;;;;;;5057085;28;20205;-82
2022/06/03 12:22:31;;;;;;;1.30;0.80;;;29.90;85.00;;;;;;5056815;28;20280;-79
2022/06/03 12:24:59;;;;;;;1.10;1.00;;;30.10;81.60;;;;;;5050315;28;20252;-83
2022/06/03 12:27:38;;;;;;;1.13;1.00;;;30.30;84.40;;;;;;5056507;28;20200;-86
2022/06/03 12:30:38;;;;;;;1.13;0.90;;;30.30;81.30;;;;;;5073220;28;20248;-86
2022/06/03 12:33:09;;;;;;;1.10;0.90;;;30.50;80.60;;;;;;5057502;28;20282;-85
2022/06/03 12:35:53;;;;;;;1.10;1.00;;;30.60;81.40;;;;;;5057733;28;20219;-85
2022/06/03 12:38:22;;;;;;;3.45;1.20;;;30.80;79.70;;;;;;5036667;28;20286;-85
2022/06/03 12:40:53;;;;;;;1.20;0.80;;;30.90;81.00;;;;;;5036727;28;20509;-81
2022/06/03 12:43:47;;;;;;;0.90;0.70;;;31.00;80.60;;;;;;5037072;28;20198;-83
2022/06/03 12:46:41;;;;;;;2.20;0.85;;;31.20;74.10;;;;;;5037915;28;20235;-80
2022/06/03 12:49:36;;;;;;;1.17;0.85;;;31.20;77.30;;;;;;5036851;28;20177;-88
2022/06/03 12:52:11;;;;;;;1.77;0.98;;;31.40;76.30;;;;;;5036977;28;20235;-86
2022/06/03 12:55:04;;;;;;;0.90;0.80;;;31.40;77.70;;;;;;5061614;28;20164;-81
2022/06/03 12:57:50;;;;;;;0.98;0.70;;;31.50;78.10;;;;;;5033081;28;20188;-83
2022/06/03 13:00:32;;;;;;;1.55;1.00;;;31.50;73.80;;;;;;5052799;28;20174;-85
2022/06/03 13:03:01;;;;;;;1.23;1.02;;;31.50;74.30;;;;;;5052967;28;20362;-83
2022/06/03 13:06:03;;;;;;;1.23;1.00;;;31.50;75.70;;;;;;5053021;28;20216;-83
2022/06/03 13:08:28;;;;;;;1.27;0.90;;;31.50;76.20;;;;;;5045151;28;20255;-82
2022/06/03 13:11:21;;;;;;;1.38;1.10;;;31.50;77.30;;;;;;5056034;28;20279;-81
2022/06/03 13:14:06;;;;;;;0.80;0.80;;;31.70;73.70;;;;;;5052684;28;20204;-84
2022/06/03 13:16:31;;;;;;;3.95;0.90;;;31.70;75.90;;;;;;5064059;22;20237;-83
2022/06/03 13:19:17;;;;;;;1.38;0.80;;;31.90;76.90;;;;;;5015824;28;20202;-82
2022/06/03 13:21:58;;;;;;;1.27;1.02;;;32.00;71.80;;;;;;5005945;28;20210;-84
2022/06/03 13:24:32;;;;;;;1.10;1.00;;;32.10;71.30;;;;;;5016276;28;20272;-85
2022/06/03 13:27:06;;;;;;;1.55;1.02;;;32.10;69.10;;;;;;4996901;28;20178;-85
2022/06/03 13:29:50;;;;;;;1.38;1.20;;;32.20;71.60;;;;;;5019483;28;20194;-82
2022/06/03 13:32:21;;;;;;;1.17;0.90;;;32.30;69.40;;;;;;5016078;28;20170;-84
2022/06/03 13:34:47;;;;;;;1.65;0.90;;;32.30;72.40;;;;;;5016143;28;20173;-81
2022/06/03 13:37:29;;;;;;;1.00;0.90;;;32.30;71.60;;;;;;5012692;28;20261;-82
2022/06/03 13:39:55;;;;;;;1.92;0.98;;;32.30;69.60;;;;;;5006628;28;20182;-80
2022/06/03 13:45:21;;;;;;;1.00;0.90;;;31.90;69.20;;;;;;4997318;28;20166;-81
2022/06/03 13:47:51;;;;;;;1.40;1.17;;;31.70;67.40;;;;;;5015772;28;20195;-82
2022/06/03 13:50:23;;;;;;;1.55;0.93;;;31.50;68.70;;;;;;5015510;28;20221;-82
2022/06/03 13:52:54;;;;;;;2.90;0.98;;;31.20;66.90;;;;;;5015926;28;20312;-84
2022/06/03 13:55:41;;;;;;;1.33;1.00;;;31.00;67.10;;;;;;5015710;28;20261;-82
2022/06/03 13:58:21;;;;;;;1.20;1.00;;;30.90;66.40;;;;;;5015613;28;20217;-83
2022/06/03 14:00:49;;;;;;;2.13;0.93;;;30.60;66.60;;;;;;5015747;28;20166;-81
2022/06/03 14:03:26;;;;;;;1.00;0.90;;;30.50;67.70;;;;;;5015717;28;20181;-83
2022/06/03 14:05:51;;;;;;;1.10;0.90;;;30.30;67.20;;;;;;5015533;28;20174;-81
2022/06/03 14:08:57;;;;;;;1.52;1.00;;;30.20;68.40;;;;;;5015307;28;20269;-88
2022/06/03 14:11:40;;;;;;;1.80;1.10;;;30.10;67.50;;;;;;5001640;28;20194;-82
2022/06/03 14:14:08;;;;;;;2.28;1.20;;;29.90;67.30;;;;;;5031918;28;20177;-82
2022/06/03 14:16:44;;;;;;;1.48;1.10;;;29.80;67.90;;;;;;5016620;28;20230;-84
2022/06/03 14:19:10;;;;;;;2.35;1.10;;;29.70;68.20;;;;;;5012419;28;20182;-83
2022/06/03 14:21:43;;;;;;;1.35;0.90;;;29.70;69.10;;;;;;5011669;28;20199;-82
2022/06/03 14:24:42;;;;;;;1.23;1.00;;;29.70;68.90;;;;;;5015214;28;20189;-79
2022/06/03 14:27:13;;;;;;;1.10;0.90;;;29.70;68.40;;;;;;5015078;28;20218;-84
2022/06/03 14:30:11;;;;;;;1.55;1.27;;;29.70;68.40;;;;;;5031854;28;20289;-83
2022/06/03 14:32:44;;;;;;;1.38;1.23;;;29.60;68.20;;;;;;5000199;28;20206;-83
2022/06/03 14:35:19;;;;;;;2.20;1.30;;;29.60;68.60;;;;;;5009655;28;20210;-82
2022/06/03 14:38:11;;;;;;;1.33;1.20;;;29.60;68.80;;;;;;5015003;28;20255;-81